Time;durP1;ratioP1;P1;durP2;ratioP2;P2;SDS_P1;SDS_P2;PMS_P1;PMS_P2;Temp;Humidity;BMP_temperature;BMP_pressure;BME280_temperature;BME280_humidity;BME280_pressure;Samples;Min_cycle;Max_cycle;Signal;HPM_P1;HPM_P2
2021/11/07 00:00:01;;;;;;;6.30;4.20;;;;;;;9.89;75.82;101353.25;5094827;28;20489;-55
2021/11/07 00:02:48;;;;;;;7.63;4.40;;;;;;;9.94;75.64;101353.66;5094519;28;20044;-53
2021/11/07 00:05:25;;;;;;;6.78;4.60;;;;;;;9.92;75.94;101340.72;5092868;28;20068;-57
2021/11/07 00:08:01;;;;;;;5.93;3.70;;;;;;;9.94;75.87;101337.97;5092005;28;20066;-57
2021/11/07 00:10:35;;;;;;;5.55;3.72;;;;;;;10.01;75.63;101338.25;5092445;28;20550;-56
2021/11/07 00:13:11;;;;;;;7.10;3.97;;;;;;;10.00;75.98;101332.22;5094441;28;20087;-54
2021/11/07 00:15:39;;;;;;;5.78;3.60;;;;;;;10.02;76.08;101325.06;5094287;28;20116;-58
2021/11/07 00:18:09;;;;;;;7.32;3.78;;;;;;;10.05;76.01;101323.97;5094264;28;20043;-57
2021/11/07 00:20:41;;;;;;;8.73;4.68;;;;;;;10.11;75.56;101324.25;5094889;28;20048;-52
2021/11/07 00:23:16;;;;;;;6.32;3.83;;;;;;;10.13;75.92;101321.50;5095164;28;20048;-56
2021/11/07 00:25:48;;;;;;;6.72;3.78;;;;;;;10.21;75.90;101313.84;5093962;28;20501;-57
2021/11/07 00:28:22;;;;;;;5.63;3.78;;;;;;;10.16;75.60;101316.81;5094394;28;20052;-56
2021/11/07 00:30:56;;;;;;;5.55;3.58;;;;;;;10.17;76.25;101305.41;5094729;28;20058;-59
2021/11/07 00:33:29;;;;;;;6.18;3.65;;;;;;;10.20;76.13;101306.94;5096432;28;20052;-59
2021/11/07 00:38:46;;;;;;;7.07;3.13;;;;;;;10.38;75.75;101299.25;5097394;28;20047;-57
2021/11/07 00:41:25;;;;;;;7.15;4.55;;;;;;;10.40;76.22;101289.47;5098008;28;20052;-57
2021/11/07 00:43:59;;;;;;;5.18;3.25;;;;;;;10.44;76.03;101282.97;5098278;28;20048;-57
2021/11/07 00:46:29;;;;;;;8.02;3.50;;;;;;;10.46;76.07;101271.41;5097998;28;20048;-55
2021/11/07 00:48:59;;;;;;;7.93;3.30;;;;;;;10.49;76.27;101267.69;5097959;28;20044;-57
2021/11/07 00:51:30;;;;;;;7.70;3.58;;;;;;;10.51;75.92;101268.38;5097478;28;20409;-55
2021/11/07 00:54:18;;;;;;;12.75;4.03;;;;;;;10.55;76.19;101269.75;5097365;28;20146;-58
2021/11/07 00:56:47;;;;;;;7.20;4.00;;;;;;;10.57;75.64;101280.91;5097662;28;20048;-57
2021/11/07 00:59:32;;;;;;;9.85;3.72;;;;;;;10.52;76.38;101272.63;5096556;28;20048;-52
2021/11/07 01:02:16;;;;;;;8.13;3.72;;;;;;;10.56;76.13;101274.84;5097596;28;20059;-55
2021/11/07 01:04:46;;;;;;;7.40;3.95;;;;;;;10.51;76.45;101278.84;5097615;28;20052;-54
2021/11/07 01:07:14;;;;;;;6.32;3.55;;;;;;;10.48;76.93;101273.88;5096979;28;20066;-54
2021/11/07 01:09:41;;;;;;;9.13;3.97;;;;;;;10.41;77.74;101278.03;5097330;28;20048;-53
2021/11/07 01:12:10;;;;;;;7.05;4.28;;;;;;;10.39;78.07;101279.97;5097031;28;20059;-58
2021/11/07 01:14:38;;;;;;;5.95;3.80;;;;;;;10.37;78.31;101267.03;5097284;28;20056;-55
2021/11/07 01:17:05;;;;;;;9.63;4.43;;;;;;;10.34;78.40;101283.00;5096632;28;20058;-58
2021/11/07 01:19:32;;;;;;;8.90;4.45;;;;;;;10.36;78.19;101272.41;5097117;28;20215;-58
2021/11/07 01:22:03;;;;;;;8.38;4.30;;;;;;;10.35;78.48;101281.22;5097274;28;20076;-58
2021/11/07 01:24:33;;;;;;;10.25;4.00;;;;;;;10.33;78.75;101264.84;5096234;28;20063;-55
2021/11/07 01:27:10;;;;;;;7.60;4.10;;;;;;;10.34;78.39;101277.78;5096962;28;20048;-57
2021/11/07 01:29:40;;;;;;;7.63;3.97;;;;;;;10.33;78.40;101268.28;5096564;28;20087;-58
2021/11/07 01:32:08;;;;;;;8.23;4.07;;;;;;;10.31;78.77;101262.34;5096130;28;20056;-59
2021/11/07 01:34:46;;;;;;;12.73;4.05;;;;;;;10.27;78.85;101260.97;5096840;28;20055;-58
2021/11/07 01:37:16;;;;;;;8.70;4.15;;;;;;;10.23;79.24;101265.66;5097526;28;20055;-59
2021/11/07 01:39:49;;;;;;;6.15;4.00;;;;;;;10.17;79.68;101258.31;5097867;28;20608;-52
2021/11/07 01:42:20;;;;;;;6.63;4.00;;;;;;;10.10;79.81;101254.59;5097050;28;20044;-59
2021/11/07 01:44:52;;;;;;;9.80;4.40;;;;;;;10.06;80.57;101247.19;5097063;28;20478;-55
2021/11/07 01:47:20;;;;;;;7.15;4.28;;;;;;;10.02;80.69;101241.41;5095957;28;20078;-56
2021/11/07 01:49:47;;;;;;;9.98;4.80;;;;;;;10.00;80.71;101253.78;5096794;28;20048;-55
2021/11/07 01:52:16;;;;;;;8.93;4.85;;;;;;;9.95;81.34;101235.06;5097023;28;20493;-58
2021/11/07 01:54:50;;;;;;;8.38;4.47;;;;;;;9.90;81.53;101227.66;5096281;28;20044;-56
2021/11/07 01:57:18;;;;;;;8.57;4.35;;;;;;;9.91;81.72;101223.25;5096796;28;20047;-56
2021/11/07 01:59:47;;;;;;;14.52;4.80;;;;;;;9.87;82.10;101219.25;5096847;28;20082;-58
2021/11/07 02:02:14;;;;;;;9.10;4.63;;;;;;;9.81;82.19;101225.03;5096785;28;20066;-57
2021/11/07 02:04:42;;;;;;;6.97;4.72;;;;;;;9.75;82.73;101213.31;5097052;28;20219;-56
2021/11/07 02:07:08;;;;;;;7.22;4.82;;;;;;;9.70;83.20;101199.84;5096024;28;20412;-55
2021/11/07 02:09:37;;;;;;;10.73;5.03;;;;;;;9.68;83.30;101200.94;5096577;28;20127;-56
2021/11/07 02:12:06;;;;;;;6.90;4.20;;;;;;;9.67;83.42;101188.84;5096547;28;20070;-59
2021/11/07 02:14:33;;;;;;;8.77;4.95;;;;;;;9.66;83.64;101198.47;5095914;28;20777;-56
2021/11/07 02:17:00;;;;;;;10.48;5.00;;;;;;;9.62;83.94;101190.06;5096288;28;20196;-57
2021/11/07 02:19:27;;;;;;;7.28;4.80;;;;;;;9.58;84.33;101186.06;5096099;28;20048;-58
2021/11/07 02:21:56;;;;;;;6.15;4.60;;;;;;;9.56;84.65;101184.56;5095416;28;20048;-56
2021/11/07 02:24:22;;;;;;;7.20;4.88;;;;;;;9.54;84.74;101181.25;5095791;28;20083;-57
2021/11/07 02:26:53;;;;;;;6.68;4.85;;;;;;;9.48;85.67;101177.38;5094068;28;20132;-57
2021/11/07 02:29:21;;;;;;;10.23;4.85;;;;;;;9.47;85.54;101170.50;5095986;28;20036;-57
2021/11/07 02:31:47;;;;;;;9.23;5.30;;;;;;;9.42;86.24;101175.34;5096685;28;20094;-56
2021/11/07 02:34:14;;;;;;;9.73;5.28;;;;;;;9.33;86.96;101181.38;5096384;28;20055;-56
2021/11/07 02:36:42;;;;;;;9.07;5.30;;;;;;;9.27;87.71;101176.69;5096049;28;20052;-58
2021/11/07 02:39:10;;;;;;;11.68;5.72;;;;;;;9.23;87.64;101175.28;5095938;28;20127;-59
2021/11/07 02:41:37;;;;;;;9.65;5.00;;;;;;;9.23;87.84;101172.69;5095744;28;20112;-57
2021/11/07 02:44:04;;;;;;;8.27;5.50;;;;;;;9.25;87.56;101173.38;5095440;28;20054;-57
2021/11/07 02:46:30;;;;;;;10.00;6.07;;;;;;;9.25;87.57;101170.78;5094811;28;20056;-57
2021/11/07 02:48:59;;;;;;;13.95;5.68;;;;;;;9.27;87.59;101169.69;5095160;28;20142;-55
2021/11/07 02:51:27;;;;;;;7.50;5.25;;;;;;;9.29;87.49;101166.94;5095819;28;20040;-56
2021/11/07 02:53:54;;;;;;;9.50;5.18;;;;;;;9.27;87.66;101163.63;5094950;28;20139;-59
2021/11/07 02:56:22;;;;;;;6.90;5.15;;;;;;;9.30;87.76;101160.75;5094398;28;20143;-55
2021/11/07 02:58:49;;;;;;;8.13;5.13;;;;;;;9.29;87.68;101153.88;5095285;28;20044;-56
2021/11/07 03:01:22;;;;;;;9.13;5.25;;;;;;;9.30;87.55;101155.53;5095633;28;20135;-57
2021/11/07 03:03:48;;;;;;;;;;;;;;;9.32;87.45;101143.16;5096195;28;20052;-57
2021/11/07 03:06:16;;;;;;;7.68;5.25;;;;;;;9.32;87.36;101140.53;5094747;28;20019;-58
2021/11/07 03:08:48;;;;;;;13.43;5.28;;;;;;;9.33;87.54;101144.81;5095537;28;20046;-59
2021/11/07 03:11:16;;;;;;;6.15;5.00;;;;;;;9.31;87.92;101136.28;5095220;28;20048;-58
2021/11/07 03:13:44;;;;;;;8.10;5.05;;;;;;;9.31;87.85;101136.28;5095235;28;20052;-54
2021/11/07 03:16:13;;;;;;;10.75;5.57;;;;;;;9.37;87.94;101134.91;5094572;28;20052;-59
2021/11/07 03:18:40;;;;;;;8.48;5.50;;;;;;;9.36;87.83;101141.94;5095204;28;20469;-57
2021/11/07 03:21:08;;;;;;;10.23;6.30;;;;;;;9.39;87.88;101133.00;5094920;28;20066;-56
2021/11/07 03:23:37;;;;;;;8.70;5.20;;;;;;;9.39;87.92;101125.16;5095507;28;20194;-56
2021/11/07 03:26:08;;;;;;;8.25;4.85;;;;;;;9.42;87.77;101117.06;5095371;28;20401;-58
2021/11/07 03:28:35;;;;;;;8.75;5.65;;;;;;;9.45;87.52;101108.94;5095248;28;20064;-59
2021/11/07 03:31:08;;;;;;;8.23;5.28;;;;;;;9.45;87.39;101122.81;5095355;28;20489;-58
2021/11/07 03:33:39;;;;;;;7.47;5.38;;;;;;;9.51;87.13;101122.25;5095221;28;20532;-59
2021/11/07 03:36:07;;;;;;;10.07;5.00;;;;;;;9.52;87.15;101108.22;5095095;28;20071;-55
2021/11/07 03:38:35;;;;;;;7.82;5.03;;;;;;;9.52;87.24;101107.41;5095171;28;20131;-54
2021/11/07 03:41:02;;;;;;;6.88;5.05;;;;;;;9.54;87.09;101123.78;5094897;28;20051;-57
2021/11/07 03:43:29;;;;;;;9.25;5.10;;;;;;;9.50;87.13;101120.59;5095643;28;20062;-58
2021/11/07 03:45:56;;;;;;;7.30;5.38;;;;;;;9.53;87.35;101115.09;5094679;28;20048;-59
2021/11/07 03:48:25;;;;;;;8.52;5.28;;;;;;;9.48;87.45;101093.78;5094507;28;20047;-59
2021/11/07 03:50:52;;;;;;;8.90;6.20;;;;;;;9.49;87.57;101092.84;5095420;28;20132;-56
2021/11/07 03:53:19;;;;;;;10.18;5.75;;;;;;;9.43;87.63;101092.59;5094838;28;20477;-57
2021/11/07 03:55:46;;;;;;;9.70;6.15;;;;;;;9.47;87.58;101084.31;5094563;28;20044;-58
2021/11/07 03:58:12;;;;;;;12.50;5.93;;;;;;;9.48;87.77;101077.28;5095455;28;20048;-58
2021/11/07 04:00:39;;;;;;;8.65;5.75;;;;;;;9.51;87.51;101079.63;5094922;28;20133;-58
2021/11/07 04:03:06;;;;;;;6.40;5.22;;;;;;;9.50;87.44;101078.81;5094742;28;20058;-59
2021/11/07 04:05:34;;;;;;;10.65;5.97;;;;;;;9.49;87.54;101079.78;5094516;28;20048;-58
2021/11/07 04:08:01;;;;;;;9.57;5.70;;;;;;;9.52;87.54;101087.34;5096113;28;20052;-56
2021/11/07 04:10:28;;;;;;;7.93;5.82;;;;;;;9.56;87.42;101090.50;5098593;28;20560;-57
2021/11/07 04:12:56;;;;;;;7.57;5.25;;;;;;;9.52;87.58;101086.50;5098701;28;20130;-55
2021/11/07 04:15:23;;;;;;;8.88;5.82;;;;;;;9.54;87.51;101093.25;5098508;28;20052;-59
2021/11/07 04:17:50;;;;;;;8.73;5.90;;;;;;;9.54;87.65;101077.56;5098406;28;20047;-56
2021/11/07 04:20:18;;;;;;;6.38;5.63;;;;;;;9.58;87.68;101088.56;5098850;28;20058;-60
2021/11/07 04:22:47;;;;;;;8.10;5.50;;;;;;;9.60;87.60;101091.88;5096647;28;20073;-57
2021/11/07 04:25:13;;;;;;;8.15;5.78;;;;;;;9.61;87.30;101080.47;5096013;28;20048;-58
2021/11/07 04:27:40;;;;;;;9.73;5.43;;;;;;;9.57;87.30;101069.47;5096321;28;20508;-58
2021/11/07 04:30:08;;;;;;;8.30;6.47;;;;;;;9.55;87.49;101071.38;5096461;28;20046;-58
2021/11/07 04:32:35;;;;;;;8.25;6.35;;;;;;;9.56;87.75;101067.81;5095967;28;20047;-57
2021/11/07 04:35:02;;;;;;;11.18;5.68;;;;;;;9.61;87.37;101070.84;5096333;28;20052;-57
2021/11/07 04:37:29;;;;;;;9.27;6.57;;;;;;;9.62;87.44;101067.25;5096519;28;20075;-56
2021/11/07 04:39:57;;;;;;;8.68;6.85;;;;;;;9.64;87.29;101057.50;5096461;28;20091;-56
2021/11/07 04:42:24;;;;;;;7.18;6.32;;;;;;;9.65;87.31;101058.31;5095770;28;20137;-58
2021/11/07 04:44:51;;;;;;;8.27;6.43;;;;;;;9.66;87.23;101057.34;5095962;28;20098;-57
2021/11/07 04:47:17;;;;;;;9.25;6.50;;;;;;;9.65;87.23;101047.88;5096145;28;20584;-58
2021/11/07 04:49:44;;;;;;;10.93;7.20;;;;;;;9.67;87.56;101059.00;5096605;28;20048;-55
2021/11/07 04:52:11;;;;;;;8.80;6.93;;;;;;;9.72;87.27;101050.75;5096652;28;20074;-60
2021/11/07 04:54:37;;;;;;;9.77;7.07;;;;;;;9.73;87.29;101036.72;5096137;28;20077;-57
2021/11/07 04:57:06;;;;;;;7.85;6.60;;;;;;;9.77;87.15;101043.31;5095996;28;20427;-58
2021/11/07 04:59:32;;;;;;;11.70;7.05;;;;;;;9.73;87.28;101031.50;5096363;28;20127;-54
2021/11/07 05:01:59;;;;;;;10.95;7.97;;;;;;;9.75;87.27;101032.19;5096442;28;20048;-58
2021/11/07 05:04:27;;;;;;;8.82;7.25;;;;;;;9.72;87.15;101017.59;5096632;28;20048;-57
2021/11/07 05:06:53;;;;;;;11.45;7.32;;;;;;;9.76;87.15;101026.00;5095910;28;20080;-57
2021/11/07 05:09:20;;;;;;;9.18;6.85;;;;;;;10.02;87.10;101011.31;5095474;28;20055;-59
2021/11/07 05:11:47;;;;;;;8.52;6.85;;;;;;;10.12;86.13;101006.88;5094695;28;20135;-58
2021/11/07 05:14:16;;;;;;;8.52;7.07;;;;;;;10.07;86.99;100990.78;5094918;28;20063;-55
2021/11/07 05:16:43;;;;;;;9.25;7.18;;;;;;;10.14;85.70;101010.16;5093779;28;20503;-55
2021/11/07 05:19:09;;;;;;;8.32;6.18;;;;;;;10.06;86.02;100999.59;5094424;28;20040;-55
2021/11/07 05:21:36;;;;;;;8.82;6.70;;;;;;;10.26;86.50;101009.06;5094621;28;20048;-55
2021/11/07 05:24:03;;;;;;;8.52;6.53;;;;;;;10.31;85.82;101006.00;5094445;28;20055;-56
2021/11/07 05:26:29;;;;;;;9.43;7.03;;;;;;;10.18;86.16;101006.31;5093996;28;20048;-56
2021/11/07 05:28:56;;;;;;;9.95;7.38;;;;;;;10.01;86.61;101009.66;5088134;28;20516;-58
2021/11/07 05:31:24;;;;;;;9.02;6.55;;;;;;;9.94;87.17;101006.78;5090104;28;20119;-58
2021/11/07 05:33:51;;;;;;;9.05;6.93;;;;;;;9.95;87.35;101002.38;5095323;28;20044;-59
2021/11/07 05:36:18;;;;;;;8.80;7.03;;;;;;;9.96;86.87;100996.19;5093719;28;20492;-59
2021/11/07 05:38:45;;;;;;;12.65;7.57;;;;;;;9.97;87.24;100992.63;5094634;28;20071;-59
2021/11/07 05:41:12;;;;;;;10.35;6.85;;;;;;;9.97;87.32;100990.00;5093825;28;20071;-59
2021/11/07 05:43:40;;;;;;;8.90;6.95;;;;;;;9.97;87.19;100990.81;5092572;28;20059;-55
2021/11/07 05:46:06;;;;;;;15.10;7.68;;;;;;;9.97;87.38;100977.75;5094440;28;20048;-58
2021/11/07 05:48:38;;;;;;;11.48;8.07;;;;;;;10.00;87.31;100994.94;5094944;28;20151;-57
2021/11/07 05:51:05;;;;;;;10.70;7.63;;;;;;;10.02;87.28;101013.94;5094870;28;20111;-55
2021/11/07 05:53:32;;;;;;;9.98;7.45;;;;;;;10.02;87.10;101011.31;5094407;28;20048;-55
2021/11/07 05:55:58;;;;;;;10.35;7.15;;;;;;;10.04;87.29;101005.94;5093930;28;20489;-58
2021/11/07 05:58:25;;;;;;;9.38;7.38;;;;;;;10.00;87.56;100987.09;5108367;28;20427;-56
2021/11/07 06:00:53;;;;;;;11.68;7.60;;;;;;;10.04;87.54;100993.69;5093224;28;20070;-60
2021/11/07 06:03:20;;;;;;;10.65;8.18;;;;;;;10.03;87.38;100992.03;5092703;28;20047;-60
2021/11/07 06:05:48;;;;;;;13.95;9.23;;;;;;;10.05;87.73;100973.59;5091525;28;20044;-59
2021/11/07 06:08:15;;;;;;;13.13;8.60;;;;;;;10.04;87.38;100978.00;5092522;28;20059;-53
2021/11/07 06:10:41;;;;;;;13.27;10.88;;;;;;;10.19;87.15;100966.13;5092692;28;20044;-59
2021/11/07 06:13:08;;;;;;;12.75;8.38;;;;;;;10.08;87.15;100984.59;5092872;28;20059;-57
2021/11/07 06:15:35;;;;;;;11.55;8.95;;;;;;;10.05;87.40;100978.81;5090949;28;20400;-60
2021/11/07 06:18:01;;;;;;;10.50;8.90;;;;;;;10.06;87.51;100976.06;5077634;27;20490;-59
2021/11/07 06:20:28;;;;;;;11.18;8.43;;;;;;;10.05;87.37;100989.28;5050683;28;20053;-59
2021/11/07 06:22:56;;;;;;;15.90;9.85;;;;;;;10.11;87.01;100997.38;5048537;28;20676;-60
2021/11/07 06:25:23;;;;;;;13.38;9.05;;;;;;;10.11;87.48;100993.94;5032296;28;20056;-59
2021/11/07 06:27:49;;;;;;;12.20;8.48;;;;;;;10.07;87.33;100988.19;5030432;28;20137;-59
2021/11/07 06:30:16;;;;;;;11.85;8.93;;;;;;;10.13;87.16;100986.78;5031583;28;20050;-59
2021/11/07 06:32:42;;;;;;;12.70;8.75;;;;;;;10.13;87.31;100982.38;5031543;28;20049;-60
2021/11/07 06:35:11;;;;;;;13.60;8.60;;;;;;;10.14;87.42;100988.44;5031407;28;20059;-60
2021/11/07 06:37:38;;;;;;;11.10;8.65;;;;;;;10.14;87.02;101002.31;5030684;28;20057;-60
2021/11/07 06:40:08;;;;;;;11.82;7.93;;;;;;;10.14;87.41;100989.25;5029835;28;20056;-59
2021/11/07 06:42:34;;;;;;;11.00;8.15;;;;;;;10.16;87.04;101012.66;5039948;28;20049;-60
2021/11/07 06:45:01;;;;;;;9.73;8.18;;;;;;;10.14;87.38;101004.13;5036954;28;20524;-59
2021/11/07 06:47:28;;;;;;;11.43;8.88;;;;;;;10.17;86.98;101002.03;5036653;28;20509;-58
2021/11/07 06:49:55;;;;;;;9.27;8.38;;;;;;;10.19;87.20;101007.97;5037194;28;20052;-60
2021/11/07 06:52:22;;;;;;;11.95;8.57;;;;;;;10.18;87.28;100995.84;5031371;28;20053;-60
2021/11/07 06:54:49;;;;;;;11.18;8.13;;;;;;;10.18;87.21;100992.41;5030764;28;20056;-60
2021/11/07 06:57:17;;;;;;;10.32;8.40;;;;;;;10.19;86.98;100981.84;5028695;28;20041;-60
2021/11/07 06:59:44;;;;;;;9.85;8.05;;;;;;;10.20;87.45;100985.28;5033061;28;20049;-60
2021/11/07 07:02:11;;;;;;;14.73;8.55;;;;;;;10.10;88.95;100990.50;5031082;28;20149;-60
2021/11/07 07:04:38;;;;;;;13.15;8.32;;;;;;;10.00;89.23;100994.94;5030397;28;20148;-60
2021/11/07 07:07:05;;;;;;;14.55;8.68;;;;;;;9.88;90.52;101004.78;5029276;28;20067;-60
2021/11/07 07:09:38;;;;;;;9.25;8.02;;;;;;;9.83;90.91;101011.41;5030789;28;20060;-60
2021/11/07 07:12:08;;;;;;;10.35;7.97;;;;;;;9.82;91.17;101014.97;5031251;28;20064;-60
2021/11/07 07:14:39;;;;;;;11.00;9.05;;;;;;;9.76;91.81;101026.81;5029726;28;20465;-58
2021/11/07 07:17:18;;;;;;;10.10;8.90;;;;;;;9.71;91.94;101029.03;5030320;28;20053;-60
2021/11/07 07:19:54;;;;;;;12.13;8.85;;;;;;;9.63;92.83;101026.28;5031226;28;20049;-58
2021/11/07 07:30:48;;;;;;;14.77;12.60;;;;;;;9.58;94.26;101026.69;4992543;28;20050;-60
2021/11/07 07:33:26;;;;;;;21.77;15.23;;;;;;;9.77;92.81;101011.97;5030841;28;20140;-60
2021/11/07 07:35:53;;;;;;;18.45;14.10;;;;;;;9.83;92.64;101011.41;5030506;28;20050;-60
2021/11/07 07:38:20;;;;;;;13.93;11.85;;;;;;;9.86;92.34;101008.50;5030900;28;20135;-60
2021/11/07 07:40:46;;;;;;;12.80;11.23;;;;;;;9.88;92.42;101009.19;5031795;28;20045;-60
2021/11/07 07:43:13;;;;;;;14.45;11.20;;;;;;;9.83;92.41;101006.16;5031009;28;20152;-55
2021/11/07 07:45:41;;;;;;;13.25;10.75;;;;;;;9.91;92.04;101014.13;5032981;28;20067;-54
2021/11/07 07:48:08;;;;;;;15.00;10.85;;;;;;;9.86;92.28;101005.88;5033700;28;20132;-60
2021/11/07 07:50:38;;;;;;;13.82;10.43;;;;;;;9.87;92.04;101028.44;5031332;28;20052;-59
2021/11/07 07:53:05;;;;;;;13.65;11.00;;;;;;;9.81;92.10;101029.00;5027325;28;20462;-59
2021/11/07 07:55:32;;;;;;;11.48;10.25;;;;;;;9.75;92.77;101024.34;5033183;28;20053;-59
2021/11/07 07:57:58;;;;;;;13.75;11.27;;;;;;;9.81;92.10;101029.81;5030792;28;20042;-59
2021/11/07 08:00:25;;;;;;;13.80;10.95;;;;;;;9.84;92.09;101021.72;5028927;28;20038;-55
2021/11/07 08:02:53;;;;;;;15.30;10.90;;;;;;;9.94;91.56;101019.03;5030423;28;20049;-53
2021/11/07 08:05:20;;;;;;;13.57;10.02;;;;;;;9.96;91.48;101020.53;5022322;28;20053;-57
2021/11/07 08:07:47;;;;;;;14.77;10.25;;;;;;;9.95;91.66;101015.47;5030757;28;20414;-58
2021/11/07 08:10:14;;;;;;;14.02;10.07;;;;;;;9.96;91.47;101010.09;5031598;28;20067;-58
2021/11/07 08:12:41;;;;;;;15.13;11.00;;;;;;;9.99;91.44;101006.38;5031497;28;20494;-56
2021/11/07 08:15:09;;;;;;;12.85;10.05;;;;;;;10.02;90.77;101019.16;5031415;28;20057;-60
2021/11/07 08:17:36;;;;;;;14.73;10.80;;;;;;;10.07;90.89;101018.72;5031439;28;20405;-60
2021/11/07 08:20:07;;;;;;;15.68;9.48;;;;;;;10.08;90.83;101025.59;5031866;28;20045;-60
2021/11/07 08:22:34;;;;;;;12.73;9.13;;;;;;;10.10;90.77;101029.72;5031139;28;20045;-60
2021/11/07 08:25:09;;;;;;;14.43;9.63;;;;;;;10.13;90.47;101032.06;5031073;28;20052;-60
2021/11/07 08:27:35;;;;;;;12.77;9.10;;;;;;;10.18;90.37;101026.41;5031299;28;20100;-60
2021/11/07 08:30:03;;;;;;;12.02;9.95;;;;;;;10.22;90.67;101023.38;5031382;28;20137;-60
2021/11/07 08:32:30;;;;;;;16.38;10.20;;;;;;;10.26;90.29;101010.84;5031280;28;20495;-60
2021/11/07 08:34:56;;;;;;;14.93;10.38;;;;;;;10.26;89.83;101022.13;5031529;28;20147;-60
2021/11/07 08:37:30;;;;;;;15.45;10.60;;;;;;;10.27;89.92;101026.41;5031117;28;20410;-60
2021/11/07 08:39:59;;;;;;;16.50;10.25;;;;;;;10.28;90.25;101033.28;5031599;28;20072;-60
2021/11/07 08:42:32;;;;;;;23.60;12.25;;;;;;;10.31;89.41;101026.94;5031500;28;20045;-60
2021/11/07 09:01:30;;;;;;;20.30;11.07;;;;;;;10.58;86.49;101042.63;5034705;28;20095;-60
2021/11/07 09:04:04;;;;;;;20.08;11.30;;;;;;;10.63;86.87;101044.81;5034706;28;20085;-57
2021/11/07 09:09:23;;;;;;;14.48;9.68;;;;;;;10.70;85.79;101060.75;5018677;28;20061;-61
2021/11/07 09:11:51;;;;;;;19.48;11.10;;;;;;;10.68;85.96;101047.81;5034346;28;20053;-60
2021/11/07 09:14:20;;;;;;;16.23;9.60;;;;;;;10.73;84.83;101044.75;5034504;28;20085;-60
2021/11/07 09:16:49;;;;;;;21.27;10.48;;;;;;;10.73;85.33;101052.59;5034600;28;20049;-60
2021/11/07 09:19:19;;;;;;;20.63;10.00;;;;;;;10.71;84.31;101044.91;5034200;28;20092;-60
2021/11/07 09:21:49;;;;;;;15.73;9.20;;;;;;;10.79;85.07;101045.00;5034360;28;20514;-60
2021/11/07 09:24:25;;;;;;;15.23;8.65;;;;;;;10.75;85.10;101058.53;5030312;28;20132;-61
2021/11/07 09:26:55;;;;;;;20.02;8.52;;;;;;;10.79;84.57;101052.03;5032721;28;20050;-61
2021/11/07 09:29:26;;;;;;;18.35;8.48;;;;;;;10.79;84.64;101055.47;5033294;28;20045;-61
2021/11/07 09:32:08;;;;;;;20.50;8.50;;;;;;;10.84;84.81;101048.00;5033524;28;20099;-61
2021/11/07 09:34:41;;;;;;;18.38;8.23;;;;;;;10.90;84.04;101057.03;5033475;28;20053;-61
2021/11/07 09:37:13;;;;;;;18.38;8.23;;;;;;;10.95;83.91;101055.63;5033306;28;20490;-61
2021/11/07 09:39:49;;;;;;;19.38;7.38;;;;;;;10.97;82.58;101058.09;5033678;28;20049;-61
2021/11/07 09:42:34;;;;;;;15.07;6.93;;;;;;;11.07;82.64;101056.22;5033122;28;20107;-61
2021/11/07 09:45:09;;;;;;;17.33;8.00;;;;;;;11.20;83.26;101061.09;5032903;28;20053;-61
2021/11/07 09:47:38;;;;;;;20.13;7.93;;;;;;;11.35;81.03;101054.34;5033288;28;20053;-61
2021/11/07 09:50:06;;;;;;;13.23;6.85;;;;;;;11.29;81.16;101065.47;5033143;28;20137;-61
2021/11/07 09:52:37;;;;;;;11.93;6.30;;;;;;;11.19;79.42;101069.94;5032947;28;20046;-61
2021/11/07 09:55:06;;;;;;;20.23;6.60;;;;;;;11.16;78.91;101065.00;5032628;28;20426;-62
2021/11/07 09:57:34;;;;;;;14.77;6.38;;;;;;;11.15;79.08;101068.59;5033163;28;20132;-61
2021/11/07 10:00:06;;;;;;;19.15;6.40;;;;;;;11.30;78.36;101067.94;5032992;28;20045;-61
2021/11/07 10:02:33;;;;;;;19.75;5.93;;;;;;;11.24;78.80;101071.13;5033054;28;20232;-61
2021/11/07 10:05:02;;;;;;;22.98;7.03;;;;;;;11.27;80.31;101065.59;5032256;28;20056;-61
2021/11/07 10:07:32;;;;;;;19.13;6.30;;;;;;;11.39;79.74;101071.41;5032583;28;20099;-61
2021/11/07 10:10:02;;;;;;;19.13;6.32;;;;;;;11.25;78.78;101054.44;5032797;28;20049;-62
2021/11/07 10:12:35;;;;;;;14.60;6.32;;;;;;;11.19;79.04;101059.47;5032725;28;20421;-61
2021/11/07 10:15:05;;;;;;;12.13;5.85;;;;;;;11.10;78.55;101057.72;5032331;28;20053;-61
2021/11/07 10:17:37;;;;;;;17.13;6.07;;;;;;;11.08;79.95;101070.97;5032572;28;20084;-61
2021/11/07 10:20:17;;;;;;;18.10;6.13;;;;;;;11.08;78.06;101063.13;5032451;28;20045;-61
2021/11/07 10:22:48;;;;;;;19.50;7.30;;;;;;;11.05;80.63;101058.19;5032860;28;20427;-61
2021/11/07 10:25:18;;;;;;;15.65;8.30;;;;;;;11.02;81.35;101062.88;5032008;28;20060;-61
2021/11/07 10:27:48;;;;;;;20.10;8.13;;;;;;;10.97;82.64;101052.84;5032403;28;20107;-61
2021/11/07 10:30:20;;;;;;;19.75;8.45;;;;;;;11.00;81.56;101054.34;5031272;28;20052;-61
2021/11/07 10:32:58;;;;;;;22.25;8.15;;;;;;;10.94;81.77;101051.34;5032645;28;20099;-61
2021/11/07 10:35:42;;;;;;;18.20;7.53;;;;;;;10.98;81.21;101044.84;5031678;28;20050;-62
2021/11/07 10:38:24;;;;;;;16.20;6.53;;;;;;;11.04;79.29;101053.09;5032490;28;20049;-62
2021/11/07 10:41:04;;;;;;;19.60;6.75;;;;;;;11.01;78.27;101042.91;5032738;28;20129;-62
2021/11/07 10:52:23;;;;;;;16.45;5.60;;;;;;;10.86;78.55;101060.94;5032250;28;20095;-61
2021/11/07 10:54:51;;;;;;;18.02;5.65;;;;;;;10.87;79.36;101055.53;5031001;28;20060;-61
2021/11/07 10:57:21;;;;;;;13.93;6.07;;;;;;;10.84;79.69;101055.03;5032252;28;20060;-61
2021/11/07 11:00:08;;;;;;;19.25;5.68;;;;;;;10.85;78.78;101056.69;5032136;28;20054;-61
2021/11/07 11:02:38;;;;;;;15.82;5.70;;;;;;;10.86;78.78;101059.16;5031799;28;20055;-61
2021/11/07 11:05:07;;;;;;;22.08;6.05;;;;;;;10.86;78.34;101055.72;5031467;28;20056;-61
2021/11/07 11:07:34;;;;;;;18.73;5.70;;;;;;;10.86;78.89;101061.75;5031487;28;20050;-61
2021/11/07 11:10:17;;;;;;;14.90;5.47;;;;;;;10.85;77.89;101047.03;5032016;28;20828;-60
2021/11/07 11:13:06;;;;;;;18.25;5.30;;;;;;;10.90;77.00;101049.19;5032046;28;20057;-61
2021/11/07 11:15:39;;;;;;;22.33;5.63;;;;;;;10.92;77.82;101052.47;5031174;28;20107;-61
2021/11/07 11:18:28;;;;;;;14.32;4.97;;;;;;;10.95;77.68;101044.31;5031923;28;20463;-60
2021/11/07 11:21:29;;;;;;;16.80;5.70;;;;;;;10.93;77.02;101049.69;5030791;28;20052;-61
2021/11/07 11:24:22;;;;;;;15.98;5.20;;;;;;;10.90;76.47;101044.75;5031470;28;20418;-61
2021/11/07 11:26:59;;;;;;;20.37;4.77;;;;;;;10.83;76.75;101033.25;5030363;28;20050;-61
2021/11/07 11:29:44;;;;;;;21.88;5.10;;;;;;;10.77;76.60;101039.09;5030063;28;20324;-59
2021/11/07 11:32:18;;;;;;;13.82;4.50;;;;;;;10.93;75.62;101044.47;5031175;28;20119;-61
2021/11/07 11:34:51;;;;;;;18.63;4.70;;;;;;;11.92;72.71;101036.44;5030835;28;20053;-61
2021/11/07 11:37:23;;;;;;;16.77;5.38;;;;;;;12.49;70.42;101041.97;5031556;28;20128;-62
2021/11/07 11:39:56;;;;;;;10.07;4.10;;;;;;;13.26;67.94;101030.34;5031725;28;20057;-61
2021/11/07 11:42:26;;;;;;;16.05;4.80;;;;;;;13.02;68.51;101030.31;5030664;28;20049;-61
2021/11/07 11:44:56;;;;;;;15.18;4.72;;;;;;;12.42;69.26;101030.47;5030060;28;20077;-60
2021/11/07 11:47:46;;;;;;;14.15;5.38;;;;;;;12.02;71.96;101023.25;5029996;28;20045;-61
2021/11/07 11:50:25;;;;;;;16.33;5.57;;;;;;;11.80;73.06;101016.75;5028297;28;20049;-61
2021/11/07 11:53:09;;;;;;;19.88;6.03;;;;;;;11.72;73.74;101021.88;5029154;28;20103;-61
2021/11/07 11:55:44;;;;;;;19.15;6.25;;;;;;;11.44;74.18;101022.00;5026497;28;20056;-61
2021/11/07 11:58:25;;;;;;;27.67;5.70;;;;;;;11.31;73.78;101021.59;5030581;28;20407;-59
2021/11/07 12:00:59;;;;;;;20.30;5.93;;;;;;;11.16;74.47;101017.84;5031266;28;20045;-61
2021/11/07 12:03:41;;;;;;;17.25;6.28;;;;;;;11.06;74.63;101028.41;5029571;28;20063;-61
2021/11/07 12:06:32;;;;;;;16.52;6.10;;;;;;;11.04;75.30;101025.09;5027642;28;20054;-60
2021/11/07 12:09:33;;;;;;;22.55;6.10;;;;;;;11.01;76.67;101024.56;5029240;28;20046;-60
2021/11/07 12:12:07;;;;;;;13.40;5.32;;;;;;;10.97;76.15;101014.41;5030477;28;20418;-61
2021/11/07 12:14:57;;;;;;;16.48;6.50;;;;;;;10.95;76.79;101010.28;5030467;28;20509;-61
2021/11/07 12:17:31;;;;;;;18.20;6.15;;;;;;;10.99;76.73;101016.88;5030795;28;20491;-59